Time;durP1;ratioP1;P1;durP2;ratioP2;P2;SDS_P1;SDS_P2;PMS_P1;PMS_P2;Temp;Humidity;BMP_temperature;BMP_pressure;BME280_temperature;BME280_humidity;BME280_pressure;Samples;Min_cycle;Max_cycle;Signal;HPM_P1;HPM_P2
2021/07/24 00:04:14;;;;;;;3.83;1.35;;;26.20;32.00;;;;;;20710023;28;80498;-70
2021/07/24 00:14:16;;;;;;;4.28;1.60;;;25.70;33.10;;;;;;20733914;28;80887;-70
2021/07/24 00:24:18;;;;;;;6.30;1.50;;;25.50;33.40;;;;;;20726662;28;80880;-70
2021/07/24 00:34:20;;;;;;;6.03;1.48;;;25.50;33.20;;;;;;20767170;28;81103;-72
2021/07/24 00:44:24;;;;;;;3.65;1.40;;;25.40;33.50;;;;;;20741272;28;80807;-71
2021/07/24 00:54:28;;;;;;;4.00;1.42;;;25.20;34.10;;;;;;20708345;28;80879;-70
2021/07/24 01:04:31;;;;;;;2.53;1.85;;;25.00;34.50;;;;;;20748723;28;80717;-70
2021/07/24 01:14:33;;;;;;;3.15;1.45;;;25.10;34.00;;;;;;20724778;28;81295;-68
2021/07/24 01:24:36;;;;;;;5.72;1.67;;;25.10;34.50;;;;;;20715118;28;80687;-68
2021/07/24 01:34:43;;;;;;;2.75;1.17;;;24.90;34.70;;;;;;20717384;28;80659;-69
2021/07/24 01:44:46;;;;;;;2.95;1.60;;;24.90;34.90;;;;;;20725748;28;81500;-69
2021/07/24 01:54:56;;;;;;;3.70;1.23;;;24.70;35.10;;;;;;20729862;28;80095;-68
2021/07/24 02:04:59;;;;;;;2.42;1.30;;;24.60;35.40;;;;;;20724244;28;80640;-67
2021/07/24 02:15:06;;;;;;;5.18;1.73;;;24.50;35.60;;;;;;20706667;28;80301;-69
2021/07/24 02:25:11;;;;;;;3.78;1.52;;;24.50;35.80;;;;;;20721757;28;81807;-70
2021/07/24 02:35:16;;;;;;;4.30;1.60;;;24.40;35.80;;;;;;20777200;28;80208;-70
2021/07/24 02:45:19;;;;;;;3.38;1.50;;;24.30;36.10;;;;;;20715445;28;82053;-70
2021/07/24 02:55:21;;;;;;;2.15;1.20;;;24.10;36.40;;;;;;20741792;28;80445;-71
2021/07/24 03:05:24;;;;;;;3.20;1.48;;;24.10;36.30;;;;;;20709147;28;81803;-70
2021/07/24 03:15:27;;;;;;;5.55;1.42;;;23.90;36.60;;;;;;20734615;28;80847;-72
2021/07/24 03:25:29;;;;;;;4.15;1.30;;;23.90;36.70;;;;;;20706096;28;80713;-72
2021/07/24 03:35:34;;;;;;;3.90;1.75;;;23.70;37.10;;;;;;20765824;28;80435;-71
2021/07/24 03:45:38;;;;;;;3.88;1.52;;;23.60;37.10;;;;;;20748601;28;82026;-73
2021/07/24 03:55:41;;;;;;;4.35;1.42;;;23.50;36.90;;;;;;20720807;28;80717;-73
2021/07/24 04:05:45;;;;;;;3.75;1.33;;;23.50;36.90;;;;;;20703362;28;81575;-72
2021/07/24 04:15:47;;;;;;;3.67;1.25;;;23.40;37.10;;;;;;20746976;28;80125;-71
2021/07/24 04:25:50;;;;;;;6.25;1.48;;;23.20;37.80;;;;;;20703300;28;81143;-70
2021/07/24 04:35:52;;;;;;;4.95;1.50;;;23.10;38.50;;;;;;20722047;28;81608;-70
2021/07/24 04:45:54;;;;;;;4.47;1.52;;;23.00;38.50;;;;;;20755619;28;80234;-72
2021/07/24 04:56:02;;;;;;;3.03;1.25;;;22.90;38.70;;;;;;20734552;28;81052;-71
2021/07/24 05:06:06;;;;;;;2.72;1.17;;;22.80;38.70;;;;;;20733386;28;80501;-72
2021/07/24 05:16:07;;;;;;;4.65;1.77;;;22.60;38.60;;;;;;20745998;28;81338;-71
2021/07/24 05:26:15;;;;;;;4.13;1.48;;;22.60;38.90;;;;;;20717774;28;80736;-71
2021/07/24 05:36:17;;;;;;;6.65;1.45;;;22.50;39.00;;;;;;20748704;28;80510;-71
2021/07/24 05:46:19;;;;;;;4.68;1.50;;;22.60;38.60;;;;;;20738238;28;80824;-72
2021/07/24 05:56:21;;;;;;;9.98;1.85;;;22.60;39.30;;;;;;20722343;28;81617;-72
2021/07/24 06:06:22;;;;;;;6.93;1.35;;;22.50;39.70;;;;;;20747771;28;81920;-70
2021/07/24 06:16:24;;;;;;;;;;;22.50;40.90;;;;;;20717923;28;80201;-71
2021/07/24 06:26:26;;;;;;;3.22;1.27;;;22.40;42.00;;;;;;20801669;27;80691;-71
2021/07/24 06:36:28;;;;;;;4.13;1.55;;;22.40;40.90;;;;;;20717153;28;80303;-72
2021/07/24 06:46:30;;;;;;;7.30;1.70;;;22.40;40.70;;;;;;20734274;28;81237;-72
2021/07/24 06:56:33;;;;;;;4.32;1.85;;;22.60;39.70;;;;;;20713200;28;81635;-72
2021/07/24 07:06:35;;;;;;;4.85;1.58;;;22.60;40.00;;;;;;20742253;28;81052;-71
2021/07/24 07:16:37;;;;;;;4.97;2.08;;;22.70;40.60;;;;;;20734747;28;80754;-71
2021/07/24 07:26:40;;;;;;;3.65;1.50;;;22.90;40.50;;;;;;20709439;28;80058;-71
2021/07/24 07:36:42;;;;;;;7.45;1.77;;;23.00;39.50;;;;;;20735031;28;80267;-72
2021/07/24 07:46:45;;;;;;;4.18;1.88;;;23.30;38.10;;;;;;20728569;28;81215;-72
2021/07/24 07:56:48;;;;;;;5.20;2.22;;;23.60;38.40;;;;;;20785954;28;80680;-72
2021/07/24 08:06:50;;;;;;;;;;;23.70;38.60;;;;;;20716889;28;80613;-71
2021/07/24 08:16:53;;;;;;;11.52;6.40;;;24.00;36.80;;;;;;20779434;28;80581;-72
2021/07/24 08:26:54;;;;;;;24.85;16.67;;;24.30;36.20;;;;;;20745999;28;79991;-72
2021/07/24 08:36:58;;;;;;;6.78;4.03;;;24.50;35.40;;;;;;20745898;28;83455;-73
2021/07/24 08:47:01;;;;;;;4.07;2.10;;;24.70;34.70;;;;;;20756294;28;84441;-72
2021/07/24 08:57:06;;;;;;;8.65;2.72;;;25.00;34.20;;;;;;20750497;28;81612;-72
2021/07/24 09:07:10;;;;;;;5.47;1.60;;;25.10;33.90;;;;;;20704280;28;81614;-72
2021/07/24 09:17:15;;;;;;;3.25;1.50;;;25.30;33.40;;;;;;20774717;28;80221;-71
2021/07/24 09:27:24;;;;;;;6.20;2.08;;;25.50;32.60;;;;;;20753378;28;81819;-72
2021/07/24 09:37:30;;;;;;;11.73;7.10;;;26.00;32.90;;;;;;20737513;28;81672;-69
2021/07/24 09:47:32;;;;;;;13.73;10.07;;;26.60;32.70;;;;;;20718557;28;81282;-69
2021/07/24 09:57:34;;;;;;;4.70;2.85;;;27.10;31.50;;;;;;20740161;28;84183;-68
2021/07/24 10:07:36;;;;;;;4.65;1.95;;;27.60;31.70;;;;;;20750523;28;83340;-68
2021/07/24 10:17:38;;;;;;;5.78;2.70;;;28.00;29.60;;;;;;20766978;28;82265;-70
2021/07/24 10:27:42;;;;;;;5.30;2.45;;;28.40;30.30;;;;;;20788637;28;80475;-70
2021/07/24 10:37:46;;;;;;;7.65;2.28;;;28.90;30.30;;;;;;20705088;28;80720;-69
2021/07/24 10:48:13;;;;;;;3.55;1.73;;;29.30;29.50;;;;;;20709721;28;82252;-69
2021/07/24 10:58:22;;;;;;;3.95;1.70;;;30.00;27.60;;;;;;20699781;28;80637;-69
2021/07/24 11:09:01;;;;;;;6.78;2.10;;;33.00;25.00;;;;;;20710888;28;80665;-69
2021/07/24 11:19:20;;;;;;;8.27;2.53;;;33.90;23.60;;;;;;20732200;28;80872;-69
2021/07/24 11:29:22;;;;;;;3.05;2.08;;;36.20;22.40;;;;;;20737946;28;80701;-68
2021/07/24 11:39:29;;;;;;;4.10;1.90;;;37.20;20.50;;;;;;20729225;28;81869;-67
2021/07/24 11:49:31;;;;;;;38.92;9.85;;;39.00;19.30;;;;;;20729179;28;81120;-67
2021/07/24 11:59:34;;;;;;;12.75;4.32;;;40.60;20.60;;;;;;20730353;28;81925;-67
2021/07/24 12:09:36;;;;;;;15.82;4.32;;;40.60;18.40;;;;;;20729860;28;80691;-67
2021/07/24 12:19:40;;;;;;;11.15;5.03;;;40.70;18.60;;;;;;20739205;28;81331;-69
2021/07/24 12:30:01;;;;;;;8.20;4.00;;;40.90;18.20;;;;;;20735809;28;81334;-70
2021/07/24 12:40:14;;;;;;;34.15;8.25;;;43.10;15.80;;;;;;20762050;28;81833;-68
2021/07/24 12:50:17;;;;;;;17.05;5.65;;;42.80;17.10;;;;;;20736121;28;81385;-68
2021/07/24 13:00:24;;;;;;;10.07;5.18;;;41.70;16.30;;;;;;20748808;28;80712;-68
2021/07/24 13:10:29;;;;;;;9.93;4.15;;;42.70;16.20;;;;;;20750201;28;80869;-70
2021/07/24 13:20:31;;;;;;;6.88;3.72;;;43.00;15.80;;;;;;20745834;28;80696;-71
2021/07/24 13:30:35;;;;;;;4.75;3.42;;;44.40;14.80;;;;;;20713058;28;80691;-70
2021/07/24 13:40:37;;;;;;;4.95;2.95;;;44.00;14.40;;;;;;20709602;28;81357;-70
2021/07/24 13:50:41;;;;;;;4.30;2.95;;;44.00;13.20;;;;;;20715485;28;81187;-70
2021/07/24 14:00:43;;;;;;;3.78;2.60;;;40.60;15.40;;;;;;20707168;28;81144;-70
2021/07/24 14:10:45;;;;;;;4.20;2.58;;;37.50;18.10;;;;;;20712186;28;80706;-69
2021/07/24 14:20:48;;;;;;;5.07;2.75;;;35.90;19.00;;;;;;20723669;28;81809;-69
2021/07/24 14:30:51;;;;;;;4.07;2.72;;;35.30;19.10;;;;;;20730887;28;80689;-69
2021/07/24 14:40:59;;;;;;;6.22;2.40;;;34.90;19.90;;;;;;20752221;28;80123;-69
2021/07/24 14:51:01;;;;;;;6.43;3.28;;;34.40;19.90;;;;;;20771083;28;80076;-70
2021/07/24 15:01:04;;;;;;;10.43;4.47;;;34.20;20.90;;;;;;20732537;28;81177;-69
2021/07/24 15:11:07;;;;;;;6.43;4.43;;;34.00;21.00;;;;;;20741992;28;80555;-69
2021/07/24 15:21:17;;;;;;;4.50;3.03;;;33.70;21.20;;;;;;20736173;28;81712;-69
2021/07/24 15:31:19;;;;;;;5.38;3.30;;;33.40;21.20;;;;;;20733693;28;80471;-69
2021/07/24 15:41:22;;;;;;;5.45;3.35;;;32.90;21.90;;;;;;20739760;28;81066;-71
2021/07/24 15:51:25;;;;;;;4.85;3.17;;;32.90;22.60;;;;;;20759925;28;80576;-70
2021/07/24 16:01:27;;;;;;;9.25;4.72;;;32.70;23.00;;;;;;20762016;28;81245;-70
2021/07/24 16:11:30;;;;;;;5.25;3.15;;;32.60;23.80;;;;;;20740309;28;81667;-70
2021/07/24 16:21:31;;;;;;;5.00;3.33;;;32.50;23.80;;;;;;20712343;28;80783;-70
2021/07/24 16:31:34;;;;;;;5.75;3.40;;;32.40;23.70;;;;;;20725290;28;80711;-69
2021/07/24 16:41:38;;;;;;;8.38;5.35;;;32.30;24.40;;;;;;20732475;28;81546;-68
2021/07/24 16:51:40;;;;;;;6.78;4.38;;;32.20;24.10;;;;;;20724979;28;80533;-68
2021/07/24 17:01:42;;;;;;;7.18;4.40;;;32.00;24.50;;;;;;20728467;28;81463;-69
2021/07/24 17:11:44;;;;;;;7.18;3.15;;;31.90;24.90;;;;;;20770066;28;81514;-69
2021/07/24 17:21:46;;;;;;;4.95;2.33;;;31.80;24.10;;;;;;20751903;28;80677;-69
2021/07/24 17:31:49;;;;;;;3.47;2.45;;;31.60;25.00;;;;;;20751690;28;81763;-69
2021/07/24 17:41:51;;;;;;;6.78;3.63;;;31.50;25.20;;;;;;20764291;28;80150;-69
2021/07/24 17:51:57;;;;;;;3.50;2.05;;;31.40;24.90;;;;;;20744533;28;80494;-69
2021/07/24 18:01:59;;;;;;;6.60;3.85;;;31.20;24.30;;;;;;20743852;28;80928;-69
2021/07/24 18:12:01;;;;;;;5.70;3.58;;;31.10;25.00;;;;;;20747244;28;81425;-73
2021/07/24 18:22:03;;;;;;;5.32;3.60;;;31.00;24.50;;;;;;20745246;28;80665;-73
2021/07/24 18:32:05;;;;;;;6.88;3.13;;;30.80;24.40;;;;;;20752730;28;81705;-73
2021/07/24 18:42:07;;;;;;;7.15;3.05;;;30.00;25.40;;;;;;20752510;28;80713;-74
2021/07/24 18:52:09;;;;;;;9.98;2.47;;;30.10;25.00;;;;;;20748374;28;81677;-73
2021/07/24 19:02:11;;;;;;;6.97;2.25;;;30.00;23.70;;;;;;20736219;28;81114;-65
2021/07/24 19:12:13;;;;;;;4.50;2.50;;;29.90;23.70;;;;;;20745482;28;80653;-67
2021/07/24 19:22:15;;;;;;;5.70;2.80;;;29.80;24.30;;;;;;20733795;28;81679;-67
2021/07/24 19:32:16;;;;;;;12.32;7.15;;;29.60;23.30;;;;;;20746324;28;80727;-67
2021/07/24 19:42:18;;;;;;;11.88;5.28;;;29.40;23.80;;;;;;20727156;28;80549;-68
2021/07/24 19:52:20;;;;;;;7.82;4.18;;;29.30;24.70;;;;;;20724883;28;81125;-68
2021/07/24 20:02:22;;;;;;;11.07;7.03;;;29.10;24.90;;;;;;20703514;28;81580;-67
2021/07/24 20:12:24;;;;;;;33.20;26.02;;;29.00;24.40;;;;;;20714670;28;80491;-67
2021/07/24 20:22:26;;;;;;;5.57;3.40;;;28.80;24.80;;;;;;20711637;28;83181;-67
2021/07/24 20:32:28;;;;;;;6.93;3.33;;;28.60;24.50;;;;;;20768046;28;84265;-67
2021/07/24 20:42:30;;;;;;;21.38;14.35;;;28.40;24.70;;;;;;20800419;28;82160;-71
2021/07/24 20:52:32;;;;;;;8.50;5.45;;;28.30;25.10;;;;;;20768258;28;82877;-70
2021/07/24 21:02:34;;;;;;;68.47;50.05;;;28.20;26.10;;;;;;20757103;28;83065;-68
2021/07/24 21:12:36;;;;;;;5.05;3.08;;;28.00;26.20;;;;;;20743527;28;82748;-70
2021/07/24 21:22:39;;;;;;;26.05;2.63;;;27.90;25.90;;;;;;20748100;28;83278;-70
2021/07/24 21:32:41;;;;;;;10.48;6.53;;;27.80;26.20;;;;;;20758177;28;81678;-69
2021/07/24 21:42:43;;;;;;;66.40;42.83;;;27.60;25.80;;;;;;20740549;28;80920;-67
2021/07/24 21:52:45;;;;;;;12.45;7.65;;;27.60;26.40;;;;;;20734400;28;82899;-69
2021/07/24 22:02:48;;;;;;;100.22;63.95;;;27.40;27.20;;;;;;20743686;28;83061;-68
2021/07/24 22:12:50;;;;;;;10.95;5.57;;;27.30;28.20;;;;;;20735758;28;83447;-68
2021/07/24 22:22:52;;;;;;;40.63;29.90;;;27.00;29.60;;;;;;20741065;28;83365;-68
2021/07/24 22:32:59;;;;;;;4.18;2.15;;;26.80;29.70;;;;;;20734467;27;83017;-70
2021/07/24 22:43:01;;;;;;;3.08;1.75;;;26.70;28.90;;;;;;20748683;28;82078;-68
2021/07/24 22:53:03;;;;;;;3.80;1.75;;;26.70;27.50;;;;;;20755330;28;80143;-68
2021/07/24 23:03:05;;;;;;;4.43;1.63;;;26.70;27.80;;;;;;20745398;28;81069;-70
2021/07/24 23:13:08;;;;;;;1.83;1.00;;;26.60;28.40;;;;;;20747260;28;81029;-70
2021/07/24 23:23:10;;;;;;;3.22;1.38;;;26.20;29.30;;;;;;20734821;28;81251;-70
2021/07/24 23:33:13;;;;;;;2.30;1.45;;;26.10;29.00;;;;;;20752801;28;80681;-70
2021/07/24 23:43:16;;;;;;;5.97;1.38;;;26.00;29.30;;;;;;20710324;28;80677;-69
2021/07/24 23:53:20;;;;;;;2.83;1.33;;;25.90;29.10;;;;;;20736848;28;81652;-69
